ASN logo
ASN Wikibase Occurrence # 192667
Last updated: 21 October 2020
This information is added by users of ASN. Neither ASN nor the Flight Safety Foundation are responsible for the completeness or correctness of this information. If you feel this information is incomplete or incorrect, you can submit corrected information.

Date:07-JAN-2017
Time:17:47 UTC
Type:Silhouette image of generic C56X model; specific model in this crash may look slightly different
Cessna 560XL Citation Excel XLS+
Owner/operator:AIR PINK DOO BEOGRAD
Registration: YU-PMK
C/n / msn: 560-6220
Fatalities:Fatalities: 0 / Occupants: 7
Other fatalities:0
Aircraft damage: Minor
Category:Accident
Location:Gomel Airport (GME/UMGG) -   Belarus
Phase: Landing
Nature:Passenger - Non-Scheduled/charter/Air Taxi
Departure airport:Kiev-Igor Sikorsky International Airport (IEV/UKKK)
Destination airport:Gomel Airport (GME/UMGG)
Narrative:
A Cessna 560XL Citation Excel XLS+ veered off the left side of runway 28 after landing at Gomel Airport, Belarus.
There were no personal injuries.

Weather reported about the incident time (17:47Z):
UMGG 071800Z 35006G09MPS 9999 DRSN OVC012 M18/M21 Q1021 R28/421050 NOSIG
UMGG 071730Z 35006G09MPS 9999 DRSN BKN011 OVC021 M18/M21 Q1021 R28/421050 NOSIG
UMGG 071700Z 35007G10MPS 9999 DRSN BKN011 OVC044 M18/M21 Q1021 R28/421050 NOSIG

Sources:

https://translate.google.nl/translate?hl=nl&sl=ru&tl=en&u=http%3A%2F%2Fgomel.today%2Frus%2Fnews%2Fgomel-4885%2F
[LINK NOT WORKING ANYMORE:http://en.news-original.ru/an-unsuccessful-landing-at-the-airport-of-gomel-the-plane-went-off-the-runway.html]
http://93.85.92.26/ti.nsf/d525668b03d2f0d4c2256f4d003cfb16/accfadc8d45302b343257cbf001a8522//%D0%9E%D0%BA%D0%BE%D0%BD%D1%87%D0%B0%D1%82%D0%B5%D0%BB%D1%8C%D0%BD%D1%8B%D0%B9%20%D0%9E%D0%A2%D0%A7%D0%95%D0%A2%20%D0%BF%D0%BE%20%D0%A1%D0%90%D0%98%20%D0%A1%D0%B5%D1%81%D1%81%D0%BD%D0%B0%20560.pdf

Accident investigation:
cover
  
Investigating agency: 
Status: Investigation completed
Duration: 3 years and 9 months
Download report: Final report


Revision history:

Date/timeContributorUpdates
08-Jan-2017 11:50 gerard57 Added
08-Jan-2017 12:53 gerard57 Updated [Departure airport, Destination airport]
08-Jan-2017 13:02 harro Updated [Time, Aircraft type, Location, Departure airport, Destination airport, Narrative]
13-Nov-2017 17:09 Anon. Updated [Operator, Nature]
31-May-2019 15:15 Anon. Updated [Operator, Departure airport]
21-Oct-2020 12:52 KagurazakaHanayo Updated [Registration, Cn, Operator, Source]
21-Oct-2020 12:52 harro Updated [Accident report]

Corrections or additions? ... Edit this accident description